Time;durP1;ratioP1;P1;durP2;ratioP2;P2;SDS_P1;SDS_P2;PMS_P1;PMS_P2;Temp;Humidity;BMP_temperature;BMP_pressure;BME280_temperature;BME280_humidity;BME280_pressure;Samples;Min_cycle;Max_cycle;Signal;HPM_P1;HPM_P2
2023/06/14 00:01:06;;;;;;;8.02;5.05;;;17.30;47.10;;;;;;5025076;28;116451;-77
2023/06/14 00:03:33;;;;;;;6.97;5.22;;;17.40;47.00;;;;;;5039390;28;115925;-78
2023/06/14 00:06:02;;;;;;;7.88;5.03;;;17.40;46.70;;;;;;5028360;27;114664;-78
2023/06/14 00:08:30;;;;;;;7.30;5.35;;;17.40;46.80;;;;;;5025562;27;114403;-78
2023/06/14 00:10:57;;;;;;;8.00;5.03;;;17.40;46.80;;;;;;5024385;28;114149;-78
2023/06/14 00:13:24;;;;;;;8.52;5.15;;;17.30;46.80;;;;;;5022982;28;114958;-77
2023/06/14 00:15:54;;;;;;;8.77;5.93;;;17.30;46.60;;;;;;5044190;28;116008;-78
2023/06/14 00:18:26;;;;;;;7.03;4.90;;;17.10;46.90;;;;;;5032981;28;114239;-78
2023/06/14 00:20:53;;;;;;;7.20;5.03;;;17.00;47.30;;;;;;5024056;28;114268;-77
2023/06/14 00:23:20;;;;;;;6.60;5.18;;;17.00;47.60;;;;;;5023940;28;117230;-77
2023/06/14 00:25:48;;;;;;;9.02;5.70;;;17.20;47.10;;;;;;5024650;28;114630;-77
2023/06/14 00:28:15;;;;;;;8.43;5.57;;;17.30;46.40;;;;;;5022329;28;114249;-78
2023/06/14 00:30:46;;;;;;;7.75;4.95;;;17.20;46.70;;;;;;5025238;27;114109;-78
2023/06/14 00:33:13;;;;;;;6.63;5.15;;;17.20;47.20;;;;;;5022888;28;116047;-78
2023/06/14 00:35:43;;;;;;;9.30;5.30;;;17.30;47.20;;;;;;5022336;28;115221;-78
2023/06/14 00:38:10;;;;;;;10.82;6.38;;;17.20;47.20;;;;;;5025079;28;114373;-79
2023/06/14 00:40:40;;;;;;;8.75;5.50;;;17.20;47.00;;;;;;5025574;27;114440;-78
2023/06/14 00:43:10;;;;;;;8.40;5.45;;;17.20;47.40;;;;;;5022792;28;114994;-78
2023/06/14 00:45:39;;;;;;;8.23;5.25;;;17.20;47.40;;;;;;5006193;28;114711;-78
2023/06/14 00:48:07;;;;;;;7.72;5.00;;;17.30;47.20;;;;;;5024180;28;114120;-78
2023/06/14 00:50:34;;;;;;;6.47;4.47;;;17.30;47.10;;;;;;5022353;28;116656;-78
2023/06/14 00:53:01;;;;;;;8.68;5.57;;;17.30;47.40;;;;;;5023106;28;117931;-78
2023/06/14 00:55:28;;;;;;;9.05;5.90;;;17.20;47.20;;;;;;5003008;28;115972;-78
2023/06/14 00:57:56;;;;;;;6.88;4.93;;;17.20;46.70;;;;;;5004930;28;114296;-79
2023/06/14 01:00:24;;;;;;;7.80;5.47;;;17.10;47.40;;;;;;5003282;28;114231;-79
2023/06/14 01:02:54;;;;;;;8.15;5.38;;;17.20;47.20;;;;;;4986697;28;115562;-79
2023/06/14 01:05:22;;;;;;;7.68;5.05;;;17.20;47.10;;;;;;4986323;28;117614;-80
2023/06/14 01:07:53;;;;;;;6.57;4.47;;;17.20;47.50;;;;;;5004598;28;114470;-80
2023/06/14 01:10:35;;;;;;;6.95;4.25;;;17.30;47.50;;;;;;5022330;28;116590;-78
2023/06/14 01:13:11;;;;;;;7.43;4.95;;;17.30;47.20;;;;;;5022013;28;115002;-80
2023/06/14 01:15:39;;;;;;;6.20;4.82;;;17.30;46.60;;;;;;5000722;28;115215;-80
2023/06/14 01:18:17;;;;;;;7.57;5.45;;;17.30;46.40;;;;;;4987165;28;114110;-80
2023/06/14 01:20:49;;;;;;;7.38;4.88;;;17.30;46.40;;;;;;5003212;28;114194;-79
2023/06/14 01:23:17;;;;;;;7.22;4.85;;;17.30;47.10;;;;;;5003335;28;115375;-79
2023/06/14 01:25:44;;;;;;;8.15;5.13;;;17.20;47.00;;;;;;5003417;28;116791;-78
2023/06/14 01:28:12;;;;;;;5.50;4.30;;;17.30;47.20;;;;;;5003099;28;120178;-78
2023/06/14 01:30:44;;;;;;;6.38;4.43;;;17.30;47.00;;;;;;5002792;28;114429;-78
2023/06/14 01:33:14;;;;;;;;;;;17.40;47.00;;;;;;5003592;28;115029;-79
2023/06/14 01:35:47;;;;;;;6.70;4.50;;;17.30;46.70;;;;;;5002283;28;114684;-78
2023/06/14 01:38:14;;;;;;;6.85;4.97;;;17.30;46.80;;;;;;4985925;28;114339;-78
2023/06/14 01:40:43;;;;;;;6.93;4.57;;;17.30;46.60;;;;;;5007086;28;115810;-79
2023/06/14 01:43:10;;;;;;;7.28;4.72;;;17.30;46.60;;;;;;5005436;28;115101;-79
2023/06/14 01:45:37;;;;;;;6.60;4.70;;;17.30;46.80;;;;;;5004892;28;117128;-78
2023/06/14 01:48:04;;;;;;;7.60;5.07;;;17.30;46.40;;;;;;4989369;28;114354;-78
2023/06/14 01:50:32;;;;;;;8.80;6.30;;;17.40;46.30;;;;;;4989899;28;114337;-78
2023/06/14 01:53:00;;;;;;;7.55;4.80;;;17.30;45.70;;;;;;5022172;28;116451;-78
2023/06/14 01:55:27;;;;;;;9.57;6.40;;;17.00;46.30;;;;;;5027105;28;114762;-77
2023/06/14 01:57:55;;;;;;;7.38;4.80;;;16.70;46.10;;;;;;5026305;28;114490;-77
2023/06/14 02:00:22;;;;;;;6.68;4.63;;;16.50;47.40;;;;;;5026134;28;114114;-77
2023/06/14 02:02:52;;;;;;;7.43;4.30;;;16.60;47.40;;;;;;5007935;28;114954;-76
2023/06/14 02:05:20;;;;;;;9.00;4.90;;;16.70;47.70;;;;;;5026233;28;115223;-77
2023/06/14 02:07:48;;;;;;;7.43;4.80;;;16.80;47.30;;;;;;5009534;28;114283;-77
2023/06/14 02:10:17;;;;;;;7.47;5.57;;;16.80;47.50;;;;;;5025884;28;114490;-78
2023/06/14 02:12:44;;;;;;;7.68;4.97;;;16.90;47.40;;;;;;5025059;28;115322;-77
2023/06/14 02:15:19;;;;;;;9.52;6.50;;;16.90;47.40;;;;;;5023672;28;114817;-78
2023/06/14 02:17:47;;;;;;;11.63;8.82;;;16.90;47.40;;;;;;5005681;28;114656;-78
2023/06/14 02:20:16;;;;;;;8.57;6.60;;;16.90;47.50;;;;;;4989690;28;114556;-78
2023/06/14 02:22:45;;;;;;;8.65;6.10;;;16.80;47.60;;;;;;4993084;28;116686;-79
2023/06/14 02:25:12;;;;;;;11.63;9.43;;;16.90;47.80;;;;;;5024622;28;115662;-79
2023/06/14 02:27:41;;;;;;;9.93;7.78;;;16.80;47.60;;;;;;5026186;27;114331;-78
2023/06/14 02:30:10;;;;;;;13.07;9.32;;;16.60;48.20;;;;;;5025949;28;114396;-79
2023/06/14 02:32:40;;;;;;;9.23;6.97;;;16.50;48.30;;;;;;5025003;28;116151;-79
2023/06/14 02:35:08;;;;;;;11.60;7.88;;;16.30;48.90;;;;;;5025209;28;114614;-79
2023/06/14 02:37:35;;;;;;;11.98;9.50;;;16.40;48.90;;;;;;5026701;27;114355;-78
2023/06/14 02:40:03;;;;;;;11.75;9.25;;;16.40;48.70;;;;;;5025870;28;114250;-79
2023/06/14 02:42:31;;;;;;;12.43;9.05;;;16.40;48.70;;;;;;5024632;28;114883;-79
2023/06/14 02:44:58;;;;;;;13.70;9.77;;;16.30;48.80;;;;;;5025208;28;114648;-78
2023/06/14 02:47:28;;;;;;;15.82;12.25;;;16.30;49.00;;;;;;5026551;28;114677;-78
2023/06/14 02:49:55;;;;;;;12.50;9.25;;;16.40;48.70;;;;;;5025376;27;116455;-79
2023/06/14 02:52:25;;;;;;;10.43;7.55;;;16.40;48.80;;;;;;5006670;28;115010;-78
2023/06/14 02:54:53;;;;;;;11.50;7.65;;;16.40;49.00;;;;;;4980255;28;117610;-77
2023/06/14 02:57:22;;;;;;;13.32;11.10;;;16.50;48.80;;;;;;4986877;28;114218;-78
2023/06/14 02:59:49;;;;;;;12.23;8.70;;;16.60;48.50;;;;;;5005265;28;114789;-78
2023/06/14 03:02:16;;;;;;;11.85;9.65;;;16.60;48.50;;;;;;5003957;28;115207;-79
2023/06/14 03:04:46;;;;;;;11.23;8.50;;;16.60;48.40;;;;;;5004062;28;114685;-79
2023/06/14 03:07:19;;;;;;;15.60;10.43;;;16.60;48.50;;;;;;4989314;28;114574;-77
2023/06/14 03:09:50;;;;;;;9.93;7.72;;;16.50;48.70;;;;;;4989421;28;114606;-78
2023/06/14 03:12:20;;;;;;;12.68;9.30;;;16.40;49.10;;;;;;4955058;28;117967;-77
2023/06/14 03:14:50;;;;;;;9.75;7.35;;;16.50;49.00;;;;;;5003745;28;115954;-78
2023/06/14 03:17:20;;;;;;;10.38;7.93;;;16.50;49.10;;;;;;4972213;28;114691;-78
2023/06/14 03:19:48;;;;;;;11.75;8.50;;;16.50;49.20;;;;;;5006010;28;114146;-76
2023/06/14 03:22:16;;;;;;;14.23;11.73;;;16.60;49.00;;;;;;5003814;28;114930;-76
2023/06/14 03:24:44;;;;;;;11.73;9.20;;;16.60;48.90;;;;;;5003636;28;114602;-77
2023/06/14 03:27:14;;;;;;;9.32;7.72;;;16.60;49.00;;;;;;5004739;28;114360;-76
2023/06/14 03:29:44;;;;;;;13.70;10.77;;;16.70;49.00;;;;;;4988736;28;114262;-76
2023/06/14 03:32:11;;;;;;;13.18;10.05;;;16.80;48.70;;;;;;5004496;28;114939;-78
2023/06/14 03:34:44;;;;;;;12.65;9.85;;;16.90;48.50;;;;;;5003683;28;116629;-78
2023/06/14 03:37:19;;;;;;;18.73;13.50;;;16.90;48.50;;;;;;5004174;28;114261;-79
2023/06/14 03:39:47;;;;;;;13.05;10.35;;;16.90;48.30;;;;;;5006422;28;115474;-79
2023/06/14 03:42:23;;;;;;;15.45;9.75;;;16.90;48.40;;;;;;5006054;28;116215;-78
2023/06/14 03:44:50;;;;;;;14.43;10.27;;;16.80;48.50;;;;;;5023441;28;114662;-78
2023/06/14 03:47:20;;;;;;;11.10;8.85;;;16.80;48.60;;;;;;5012670;28;114551;-77
2023/06/14 03:49:48;;;;;;;9.68;7.90;;;16.80;48.60;;;;;;5004427;28;115583;-78
2023/06/14 03:52:19;;;;;;;10.18;8.35;;;16.80;48.50;;;;;;4987011;28;116807;-77
2023/06/14 03:54:47;;;;;;;9.13;7.38;;;16.80;48.80;;;;;;5002703;28;114542;-77
2023/06/14 03:57:18;;;;;;;15.10;8.70;;;16.80;48.70;;;;;;5003994;28;114337;-77
2023/06/14 03:59:46;;;;;;;14.02;10.05;;;16.80;48.40;;;;;;4971329;28;114406;-78
2023/06/14 04:02:17;;;;;;;10.05;7.60;;;16.80;48.10;;;;;;4986227;28;115027;-78
2023/06/14 04:04:45;;;;;;;9.98;7.63;;;17.00;48.40;;;;;;5004678;28;115128;-78
2023/06/14 04:07:13;;;;;;;11.55;9.07;;;17.00;48.40;;;;;;5003778;28;114669;-78
2023/06/14 04:09:41;;;;;;;16.00;11.40;;;17.10;48.00;;;;;;5025001;28;114499;-79
2023/06/14 04:12:08;;;;;;;13.30;9.07;;;17.10;47.90;;;;;;5023166;28;115113;-78
2023/06/14 04:14:36;;;;;;;12.30;9.45;;;17.00;48.00;;;;;;5005970;28;114869;-78
2023/06/14 04:17:04;;;;;;;12.10;8.95;;;17.10;48.10;;;;;;5024399;28;114554;-78
2023/06/14 04:19:32;;;;;;;13.73;9.80;;;17.20;48.10;;;;;;5023957;28;114262;-79
2023/06/14 04:22:01;;;;;;;11.52;8.68;;;17.20;47.80;;;;;;5006895;28;115246;-78
2023/06/14 04:24:34;;;;;;;13.27;10.40;;;17.20;47.80;;;;;;5007631;28;114579;-78
2023/06/14 04:27:04;;;;;;;9.88;8.15;;;17.20;47.70;;;;;;5005174;28;117288;-79
2023/06/14 04:29:31;;;;;;;15.77;11.00;;;17.30;47.80;;;;;;4987632;28;114694;-78
2023/06/14 04:32:06;;;;;;;11.73;9.32;;;17.30;47.40;;;;;;5002409;28;114906;-79
2023/06/14 04:34:34;;;;;;;11.30;8.98;;;17.30;47.70;;;;;;4986759;28;114755;-79
2023/06/14 04:37:03;;;;;;;11.73;8.95;;;17.30;47.70;;;;;;5003973;28;114358;-79
2023/06/14 04:39:35;;;;;;;11.82;9.13;;;17.20;47.70;;;;;;4987852;28;114480;-78
2023/06/14 04:42:03;;;;;;;11.55;8.90;;;17.20;47.80;;;;;;5002537;28;115812;-78
2023/06/14 04:44:31;;;;;;;12.70;9.52;;;17.30;47.70;;;;;;4969740;28;117392;-78
2023/06/14 04:47:02;;;;;;;13.15;9.80;;;17.30;47.60;;;;;;4987440;28;114409;-78
2023/06/14 04:49:32;;;;;;;13.10;9.63;;;17.30;47.60;;;;;;5004092;28;115598;-78
2023/06/14 04:52:01;;;;;;;13.02;9.77;;;17.30;47.60;;;;;;5003597;28;114948;-77
2023/06/14 04:54:41;;;;;;;12.73;9.20;;;17.30;47.70;;;;;;5008833;28;118244;-78
2023/06/14 04:57:13;;;;;;;14.80;9.98;;;17.40;47.60;;;;;;5022653;28;114840;-78
2023/06/14 04:59:43;;;;;;;13.43;8.60;;;17.40;47.40;;;;;;4990652;28;114313;-79
2023/06/14 05:02:11;;;;;;;13.55;8.98;;;17.40;47.70;;;;;;5022232;28;115102;-79
2023/06/14 05:04:39;;;;;;;10.75;8.13;;;17.50;47.60;;;;;;5021952;28;115240;-78
2023/06/14 05:07:08;;;;;;;12.02;8.93;;;17.40;47.40;;;;;;5023081;28;114637;-78
2023/06/14 05:09:35;;;;;;;11.55;8.10;;;17.40;47.50;;;;;;5023479;28;115351;-78
2023/06/14 05:12:03;;;;;;;14.70;11.15;;;17.40;47.50;;;;;;5022214;28;115108;-78
2023/06/14 05:14:30;;;;;;;16.63;12.48;;;17.50;47.40;;;;;;5006592;28;117289;-78
2023/06/14 05:16:59;;;;;;;17.67;12.65;;;17.30;47.10;;;;;;5026702;28;114328;-79
2023/06/14 05:19:27;;;;;;;12.38;8.77;;;17.20;47.50;;;;;;5026196;28;114497;-78
2023/06/14 05:21:55;;;;;;;14.77;11.18;;;17.10;47.90;;;;;;5025351;27;115114;-78
2023/06/14 05:24:23;;;;;;;18.75;12.43;;;17.10;47.90;;;;;;5025042;28;114533;-78
2023/06/14 05:26:51;;;;;;;15.00;9.52;;;17.00;47.90;;;;;;5027360;27;114354;-78
2023/06/14 05:29:18;;;;;;;13.27;8.90;;;16.80;48.20;;;;;;5027690;27;114204;-77
2023/06/14 05:31:45;;;;;;;14.25;9.43;;;16.70;48.70;;;;;;5005012;28;114909;-77
2023/06/14 05:34:13;;;;;;;15.27;10.65;;;16.70;48.90;;;;;;5006344;28;116281;-77
2023/06/14 05:36:40;;;;;;;13.65;11.00;;;16.80;48.80;;;;;;5005407;28;114332;-78
2023/06/14 05:39:08;;;;;;;17.05;12.63;;;16.90;48.50;;;;;;5007281;28;114448;-77
2023/06/14 05:41:35;;;;;;;16.95;10.45;;;17.00;48.40;;;;;;5004810;28;116878;-77
2023/06/14 05:44:02;;;;;;;16.50;10.82;;;16.90;48.40;;;;;;5005279;28;114712;-77
2023/06/14 05:46:29;;;;;;;15.10;10.80;;;17.00;48.50;;;;;;5006629;28;114614;-78
2023/06/14 05:48:57;;;;;;;17.00;12.00;;;17.20;48.30;;;;;;4952694;27;114531;-77
2023/06/14 05:51:26;;;;;;;11.07;8.52;;;17.30;48.20;;;;;;4965964;28;115189;-75
2023/06/14 05:53:54;;;;;;;15.32;12.02;;;17.40;48.00;;;;;;4964980;28;114692;-77
2023/06/14 05:56:22;;;;;;;14.30;10.27;;;17.50;47.80;;;;;;4966840;28;114287;-77
2023/06/14 05:58:52;;;;;;;16.05;11.82;;;17.30;47.90;;;;;;4980970;28;114262;-78
2023/06/14 06:01:20;;;;;;;11.77;8.88;;;17.40;48.00;;;;;;4966145;28;116158;-79
2023/06/14 06:03:47;;;;;;;12.68;8.80;;;17.40;47.90;;;;;;4966309;28;114666;-79
2023/06/14 06:06:16;;;;;;;14.88;11.30;;;17.50;47.80;;;;;;4967103;28;114566;-79
2023/06/14 06:08:46;;;;;;;17.42;12.57;;;17.70;47.70;;;;;;4967267;28;114343;-78
2023/06/14 06:11:13;;;;;;;24.35;16.27;;;17.80;47.50;;;;;;4966024;28;115582;-78
2023/06/14 06:13:41;;;;;;;19.02;14.38;;;17.80;47.60;;;;;;4981426;28;115235;-78
2023/06/14 06:16:08;;;;;;;15.15;10.38;;;17.80;47.40;;;;;;4965714;28;114729;-78
2023/06/14 06:18:36;;;;;;;24.00;17.23;;;17.80;47.30;;;;;;4934072;28;114410;-79
2023/06/14 06:21:04;;;;;;;19.20;13.93;;;17.70;47.90;;;;;;4966630;28;115291;-77
2023/06/14 06:23:31;;;;;;;16.50;11.38;;;17.70;47.70;;;;;;4966351;28;118076;-78
2023/06/14 06:25:58;;;;;;;24.73;17.88;;;17.70;47.70;;;;;;4967454;28;114289;-77
2023/06/14 06:28:26;;;;;;;17.13;13.30;;;17.70;47.90;;;;;;4966668;28;114073;-78
2023/06/14 06:30:53;;;;;;;24.20;16.73;;;17.70;47.80;;;;;;4966403;28;115082;-77
2023/06/14 06:33:21;;;;;;;13.75;10.32;;;17.60;48.00;;;;;;4965798;28;115014;-77
2023/06/14 06:35:48;;;;;;;18.00;13.73;;;17.50;48.00;;;;;;4965013;28;114184;-78
2023/06/14 06:38:15;;;;;;;20.08;13.80;;;17.50;48.10;;;;;;4949497;28;114287;-78
2023/06/14 06:40:43;;;;;;;20.98;16.40;;;17.60;48.10;;;;;;4966091;28;115225;-78
2023/06/14 06:43:13;;;;;;;14.23;10.80;;;17.60;48.10;;;;;;4965827;28;114624;-79
2023/06/14 06:45:45;;;;;;;19.25;13.68;;;17.70;48.00;;;;;;4965367;28;114430;-78
2023/06/14 06:48:12;;;;;;;12.98;10.13;;;17.70;48.10;;;;;;4966721;28;114269;-78
2023/06/14 06:50:39;;;;;;;20.33;14.00;;;17.80;47.90;;;;;;4988043;28;114946;-78
2023/06/14 06:53:07;;;;;;;21.00;15.18;;;17.80;48.10;;;;;;5000727;28;115247;-78
2023/06/14 06:55:34;;;;;;;32.22;20.92;;;17.80;48.20;;;;;;4986032;28;118242;-79
2023/06/14 06:58:01;;;;;;;25.67;19.15;;;17.80;48.70;;;;;;4984508;28;114316;-77
2023/06/14 07:00:28;;;;;;;27.70;16.50;;;17.70;48.90;;;;;;5000208;28;115240;-78
2023/06/14 07:02:56;;;;;;;15.15;10.27;;;17.70;48.80;;;;;;4985565;28;114676;-77
2023/06/14 07:05:24;;;;;;;16.15;12.00;;;17.50;48.60;;;;;;5001113;28;114185;-77
2023/06/14 07:07:51;;;;;;;21.60;15.75;;;17.50;48.90;;;;;;4959767;28;115594;-78
2023/06/14 07:10:20;;;;;;;23.17;17.48;;;17.70;49.20;;;;;;4965872;28;115887;-77
2023/06/14 07:12:47;;;;;;;26.52;19.30;;;17.80;49.20;;;;;;4983833;28;114636;-78
2023/06/14 07:15:14;;;;;;;28.00;19.33;;;17.80;49.40;;;;;;4986001;28;114676;-79
2023/06/14 07:17:42;;;;;;;18.35;13.90;;;17.90;49.30;;;;;;5001108;28;114354;-79
2023/06/14 07:20:13;;;;;;;24.25;17.23;;;18.00;48.60;;;;;;5000082;28;115431;-78
2023/06/14 07:22:41;;;;;;;20.85;14.43;;;18.00;49.00;;;;;;4985177;28;115208;-77
2023/06/14 07:25:14;;;;;;;22.88;16.42;;;18.00;48.40;;;;;;4992773;28;118287;-79
2023/06/14 07:27:43;;;;;;;16.75;12.65;;;18.10;48.80;;;;;;4980418;28;114346;-78
2023/06/14 07:30:10;;;;;;;21.48;15.88;;;18.10;48.10;;;;;;4965293;28;115017;-78
2023/06/14 07:32:38;;;;;;;21.83;15.25;;;18.20;48.40;;;;;;4963298;28;118090;-78
2023/06/14 07:35:06;;;;;;;24.10;16.23;;;18.10;48.20;;;;;;4981356;28;115435;-79
2023/06/14 07:37:33;;;;;;;20.83;14.50;;;18.20;48.50;;;;;;4965546;28;114358;-78
2023/06/14 07:40:02;;;;;;;35.78;15.20;;;18.20;48.20;;;;;;4965251;28;114942;-77
2023/06/14 07:42:30;;;;;;;20.42;13.07;;;18.20;48.30;;;;;;4964218;28;114899;-77
2023/06/14 07:44:57;;;;;;;18.27;13.68;;;18.30;48.00;;;;;;4981286;28;114335;-77
2023/06/14 07:47:25;;;;;;;15.52;11.65;;;18.20;48.10;;;;;;4963968;28;117088;-76
2023/06/14 07:49:52;;;;;;;18.05;13.73;;;18.20;48.00;;;;;;4979603;28;114901;-77
2023/06/14 07:52:20;;;;;;;18.17;13.07;;;18.20;48.40;;;;;;4963204;28;114857;-78
2023/06/14 07:54:47;;;;;;;19.33;13.43;;;18.30;48.10;;;;;;4980174;28;114353;-77
2023/06/14 07:57:14;;;;;;;20.95;14.40;;;18.30;48.10;;;;;;4965661;28;114366;-78
2023/06/14 07:59:41;;;;;;;15.27;11.30;;;18.20;48.50;;;;;;4963666;28;115184;-77
2023/06/14 08:02:08;;;;;;;13.48;10.88;;;18.10;48.30;;;;;;4980027;28;114854;-77
2023/06/14 08:04:36;;;;;;;14.75;11.13;;;18.00;48.30;;;;;;4964033;28;114445;-77
2023/06/14 08:07:03;;;;;;;15.35;11.60;;;18.10;48.40;;;;;;4964458;28;114278;-77
2023/06/14 08:09:34;;;;;;;15.15;11.45;;;18.10;48.30;;;;;;4947394;28;119062;-78
2023/06/14 08:12:01;;;;;;;17.55;12.15;;;18.20;48.40;;;;;;4965707;28;115424;-78
2023/06/14 08:14:29;;;;;;;19.15;12.60;;;18.10;48.50;;;;;;4964205;28;114544;-77
2023/06/14 08:16:59;;;;;;;18.35;12.52;;;17.90;48.60;;;;;;4965412;28;114133;-78
2023/06/14 08:19:26;;;;;;;16.83;13.55;;;17.90;48.70;;;;;;4962051;28;117097;-77
2023/06/14 08:21:55;;;;;;;19.65;13.90;;;18.00;48.80;;;;;;4961894;28;114669;-76
2023/06/14 08:24:26;;;;;;;17.42;14.23;;;18.20;48.60;;;;;;4964615;28;114423;-78
2023/06/14 08:26:54;;;;;;;17.58;13.88;;;18.20;48.90;;;;;;4964677;28;114335;-77
2023/06/14 08:29:22;;;;;;;20.45;12.82;;;18.10;48.90;;;;;;4972818;28;117959;-78
2023/06/14 08:31:50;;;;;;;17.13;12.93;;;18.10;49.20;;;;;;4999077;28;117455;-79
2023/06/14 08:34:17;;;;;;;16.50;12.55;;;18.20;49.10;;;;;;4999888;28;114432;-76
2023/06/14 08:36:45;;;;;;;16.05;13.23;;;18.30;48.80;;;;;;4984325;28;114417;-77
2023/06/14 08:39:13;;;;;;;20.17;13.43;;;18.30;48.40;;;;;;4965016;28;117255;-79
2023/06/14 08:41:40;;;;;;;16.60;13.23;;;18.40;48.60;;;;;;4981624;28;115919;-78
2023/06/14 08:44:07;;;;;;;16.55;13.27;;;18.20;48.30;;;;;;4966670;28;114304;-78
2023/06/14 08:46:34;;;;;;;16.30;12.02;;;18.10;48.80;;;;;;4999137;28;114451;-77
2023/06/14 08:49:05;;;;;;;19.05;13.52;;;18.10;48.90;;;;;;4982827;28;115623;-77
2023/06/14 08:51:33;;;;;;;17.30;14.20;;;18.10;49.20;;;;;;4987240;28;114631;-77
2023/06/14 08:54:01;;;;;;;15.32;11.60;;;18.00;49.50;;;;;;5002857;28;114958;-78
2023/06/14 08:56:31;;;;;;;19.90;13.90;;;18.00;49.00;;;;;;5003301;28;114807;-78
2023/06/14 08:59:02;;;;;;;19.02;13.55;;;18.20;49.30;;;;;;4963815;28;115638;-76
2023/06/14 09:01:34;;;;;;;16.35;11.63;;;18.20;49.00;;;;;;4966034;28;115710;-79
2023/06/14 09:04:05;;;;;;;16.58;12.43;;;18.30;48.60;;;;;;4968061;28;114515;-78
2023/06/14 09:06:33;;;;;;;14.85;12.18;;;18.30;48.80;;;;;;4982724;28;114520;-77
2023/06/14 09:09:02;;;;;;;16.45;13.68;;;18.60;48.90;;;;;;4964364;28;114985;-78
2023/06/14 09:11:30;;;;;;;16.30;11.88;;;18.70;48.50;;;;;;4965667;28;117712;-79
2023/06/14 09:13:59;;;;;;;16.23;12.48;;;18.70;48.30;;;;;;4982396;28;114497;-77
2023/06/14 09:16:26;;;;;;;14.63;11.48;;;18.70;48.20;;;;;;4950090;28;115963;-77
2023/06/14 09:18:56;;;;;;;20.10;14.15;;;18.80;47.90;;;;;;4965490;28;116279;-77
2023/06/14 09:21:27;;;;;;;16.95;12.18;;;18.80;48.20;;;;;;4967306;28;115110;-78
2023/06/14 09:23:57;;;;;;;14.95;11.35;;;18.70;47.80;;;;;;4966779;28;114174;-77
2023/06/14 09:26:24;;;;;;;18.27;12.45;;;18.70;48.10;;;;;;4966837;28;114440;-78
2023/06/14 09:28:51;;;;;;;17.25;14.02;;;18.70;48.30;;;;;;4966657;28;114792;-78
2023/06/14 09:31:20;;;;;;;12.95;10.68;;;18.70;48.10;;;;;;4965942;28;114667;-77
2023/06/14 09:33:48;;;;;;;12.48;10.52;;;18.70;48.20;;;;;;4985897;28;114393;-77
2023/06/14 09:36:23;;;;;;;13.55;10.45;;;18.70;48.10;;;;;;5002253;28;114823;-78
2023/06/14 09:38:55;;;;;;;15.10;11.35;;;18.80;47.90;;;;;;4985017;28;114867;-77
2023/06/14 09:41:39;;;;;;;16.63;10.93;;;18.90;48.10;;;;;;4985172;28;117065;-77
2023/06/14 09:44:07;;;;;;;16.73;11.45;;;18.80;47.90;;;;;;5002740;28;114167;-78
2023/06/14 09:46:38;;;;;;;12.05;9.77;;;18.80;48.40;;;;;;4987831;28;114554;-76
2023/06/14 09:49:05;;;;;;;14.13;10.68;;;18.80;47.90;;;;;;4971497;28;115060;-77
2023/06/14 09:51:33;;;;;;;13.23;10.48;;;18.80;48.00;;;;;;4964679;28;115859;-77
2023/06/14 09:54:06;;;;;;;15.43;11.13;;;18.80;47.90;;;;;;4981100;28;115099;-78
2023/06/14 09:56:38;;;;;;;17.48;12.40;;;18.80;47.80;;;;;;4983215;28;114321;-78
2023/06/14 09:59:08;;;;;;;14.63;11.40;;;18.70;48.10;;;;;;4999945;28;115957;-79
2023/06/14 10:01:40;;;;;;;17.27;12.07;;;18.60;48.30;;;;;;5000698;28;114712;-78
2023/06/14 10:04:07;;;;;;;15.40;11.73;;;18.70;48.60;;;;;;4967577;28;117695;-77
2023/06/14 10:06:43;;;;;;;15.27;10.60;;;18.70;48.80;;;;;;4981738;28;114457;-78
2023/06/14 10:09:10;;;;;;;14.32;11.15;;;18.80;48.30;;;;;;4981254;28;117028;-77
2023/06/14 10:11:43;;;;;;;16.60;10.57;;;18.80;48.50;;;;;;4981086;28;115346;-77
2023/06/14 10:14:12;;;;;;;13.63;10.75;;;18.90;48.50;;;;;;4966501;28;114554;-77
2023/06/14 10:16:58;;;;;;;15.90;11.35;;;18.80;48.40;;;;;;4965794;28;114595;-78
2023/06/14 10:19:34;;;;;;;14.60;11.18;;;19.00;48.60;;;;;;4980458;28;115146;-77
2023/06/14 10:22:24;;;;;;;15.30;10.45;;;19.00;48.50;;;;;;4979286;28;114682;-77
2023/06/14 10:24:52;;;;;;;15.65;11.02;;;19.10;48.00;;;;;;4980192;28;114578;-78
2023/06/14 10:27:23;;;;;;;17.60;11.38;;;19.20;48.60;;;;;;4965782;28;114152;-78
2023/06/14 10:29:57;;;;;;;17.98;11.43;;;19.20;48.40;;;;;;4963759;28;118563;-77
2023/06/14 10:32:25;;;;;;;13.80;9.73;;;19.30;48.50;;;;;;4965198;28;115016;-78
2023/06/14 10:35:06;;;;;;;14.30;11.25;;;19.30;47.60;;;;;;4980587;28;114657;-78
2023/06/14 10:37:35;;;;;;;12.32;9.68;;;19.50;48.00;;;;;;4997549;28;114523;-78
2023/06/14 10:40:04;;;;;;;12.73;9.38;;;19.60;47.00;;;;;;5000488;28;116057;-78
2023/06/14 10:42:34;;;;;;;14.30;9.98;;;19.70;47.00;;;;;;5000076;28;114407;-78
2023/06/14 10:45:01;;;;;;;12.18;8.82;;;19.80;46.80;;;;;;5001268;28;114635;-77
2023/06/14 10:47:39;;;;;;;11.35;8.82;;;19.70;46.40;;;;;;4985876;28;114414;-76
2023/06/14 10:50:08;;;;;;;14.77;10.18;;;19.60;46.30;;;;;;4961516;28;115465;-77
2023/06/14 10:52:38;;;;;;;15.45;10.77;;;19.50;47.10;;;;;;4964934;28;114852;-78
2023/06/14 10:55:16;;;;;;;11.98;9.63;;;19.60;47.60;;;;;;4981031;28;114344;-78
2023/06/14 10:57:49;;;;;;;17.58;11.68;;;19.50;47.70;;;;;;4979396;28;114354;-76
2023/06/14 11:00:22;;;;;;;16.20;11.68;;;19.50;47.70;;;;;;4965175;28;115108;-77
2023/06/14 11:03:15;;;;;;;13.80;10.82;;;19.40;47.90;;;;;;4980375;28;115141;-79
2023/06/14 11:05:52;;;;;;;16.67;11.05;;;19.40;47.60;;;;;;4965075;28;114477;-78
2023/06/14 11:08:42;;;;;;;16.38;11.02;;;19.40;48.30;;;;;;5000317;28;118209;-77
2023/06/14 11:11:09;;;;;;;13.13;9.10;;;19.30;47.80;;;;;;4983594;28;115554;-78
2023/06/14 11:13:42;;;;;;;11.73;8.50;;;19.20;47.70;;;;;;4998778;28;115271;-78
2023/06/14 11:16:12;;;;;;;14.25;9.18;;;19.30;47.10;;;;;;4983705;28;114642;-76
2023/06/14 11:18:40;;;;;;;11.60;8.82;;;19.30;47.20;;;;;;5001166;28;114138;-76
2023/06/14 11:21:10;;;;;;;12.13;7.95;;;19.30;47.30;;;;;;4999699;28;116171;-78
2023/06/14 11:23:38;;;;;;;11.00;8.05;;;19.30;46.40;;;;;;4983595;28;114743;-78
2023/06/14 11:26:05;;;;;;;10.07;7.90;;;19.30;46.30;;;;;;5000670;28;114623;-77
2023/06/14 11:28:37;;;;;;;10.63;8.00;;;19.20;46.60;;;;;;4972508;28;114261;-77
2023/06/14 11:31:04;;;;;;;11.30;8.10;;;19.30;46.50;;;;;;4979925;28;115374;-77
2023/06/14 11:33:31;;;;;;;11.95;8.30;;;19.40;46.30;;;;;;4979952;28;114743;-77
2023/06/14 11:35:58;;;;;;;9.38;7.60;;;19.50;46.20;;;;;;4980065;28;114396;-77
2023/06/14 11:38:26;;;;;;;10.88;7.80;;;19.60;46.00;;;;;;4964251;28;114267;-77
2023/06/14 11:40:53;;;;;;;9.48;8.23;;;19.80;45.90;;;;;;4964538;28;114935;-78
2023/06/14 11:43:21;;;;;;;11.10;8.05;;;19.80;45.70;;;;;;4978817;28;114913;-77
2023/06/14 11:45:49;;;;;;;9.40;7.70;;;19.80;45.40;;;;;;4964185;28;114380;-77
2023/06/14 11:48:38;;;;;;;9.93;8.25;;;19.70;45.80;;;;;;4965607;28;114443;-78
2023/06/14 11:51:05;;;;;;;13.77;9.02;;;19.80;45.60;;;;;;4978801;28;115484;-78
2023/06/14 11:53:32;;;;;;;10.45;7.13;;;19.90;45.50;;;;;;4979327;28;116335;-78
2023/06/14 11:55:59;;;;;;;9.35;6.82;;;20.00;44.30;;;;;;4980265;28;114544;-77
2023/06/14 11:58:27;;;;;;;11.88;7.45;;;20.10;44.10;;;;;;4964065;28;114330;-78
2023/06/14 12:00:56;;;;;;;10.23;8.00;;;20.20;44.20;;;;;;4962572;28;115955;-78
2023/06/14 12:03:29;;;;;;;9.77;7.72;;;20.20;44.10;;;;;;4963878;28;116023;-77
2023/06/14 12:06:10;;;;;;;9.27;6.97;;;20.10;44.10;;;;;;4964288;28;114470;-77
2023/06/14 12:08:39;;;;;;;7.80;6.32;;;20.10;44.00;;;;;;4980551;28;114241;-78
2023/06/14 12:11:10;;;;;;;8.73;6.82;;;20.10;43.10;;;;;;4979663;28;115152;-78
2023/06/14 12:13:41;;;;;;;8.95;7.13;;;19.80;43.90;;;;;;4979522;28;116931;-78
2023/06/14 12:16:09;;;;;;;8.75;6.93;;;19.80;44.40;;;;;;4963897;28;114368;-78
2023/06/14 12:18:37;;;;;;;11.18;8.18;;;20.00;44.60;;;;;;4980975;28;114532;-78
2023/06/14 12:21:06;;;;;;;12.75;7.70;;;19.90;44.30;;;;;;4979676;28;115030;-77
2023/06/14 12:23:43;;;;;;;11.82;8.02;;;19.80;44.20;;;;;;4963064;28;114771;-77
2023/06/14 12:26:12;;;;;;;10.63;7.43;;;19.80;44.40;;;;;;4964912;28;114342;-77
2023/06/14 12:28:41;;;;;;;9.98;7.55;;;19.70;44.40;;;;;;4965064;28;114372;-77
2023/06/14 12:31:09;;;;;;;10.00;7.32;;;19.70;44.30;;;;;;4977363;28;115373;-77
2023/06/14 12:33:36;;;;;;;9.10;7.20;;;19.80;44.30;;;;;;4999058;28;114788;-78
2023/06/14 12:36:05;;;;;;;10.23;7.90;;;19.90;44.10;;;;;;5000218;28;114729;-78